Time;durP1;ratioP1;P1;durP2;ratioP2;P2;SDS_P1;SDS_P2;PMS_P1;PMS_P2;Temp;Humidity;BMP_temperature;BMP_pressure;BME280_temperature;BME280_humidity;BME280_pressure;Samples;Min_cycle;Max_cycle;Signal;HPM_P1;HPM_P2
2023/08/22 04:00:20;;;;;;;0.80;0.23;;;24.30;99.90;;;;;;5915046;23;20361;-69
2023/08/22 04:02:53;;;;;;;0.70;0.10;;;24.20;99.90;;;;;;4914282;29;20452;-69
2023/08/22 04:05:22;;;;;;;0.70;0.10;;;24.00;99.90;;;;;;4914638;29;20448;-68
2023/08/22 04:07:50;;;;;;;0.70;0.30;;;24.00;99.90;;;;;;4914539;29;21065;-68
2023/08/22 04:10:19;;;;;;;0.70;0.20;;;24.00;99.90;;;;;;4913511;29;20451;-68
2023/08/22 04:12:47;;;;;;;0.80;0.43;;;23.90;99.90;;;;;;4895981;29;20483;-69
2023/08/22 04:15:16;;;;;;;0.70;0.20;;;23.80;99.90;;;;;;4896267;29;20488;-70
2023/08/22 04:17:46;;;;;;;0.70;0.10;;;23.80;99.90;;;;;;4897642;29;20561;-68
2023/08/22 04:20:17;;;;;;;0.70;0.10;;;23.70;99.90;;;;;;4899260;29;20488;-69
2023/08/22 04:22:45;;;;;;;0.70;0.10;;;23.70;99.90;;;;;;4899400;29;20452;-69
2023/08/22 04:25:13;;;;;;;0.70;0.20;;;23.70;99.90;;;;;;4898986;29;20573;-69
2023/08/22 04:27:41;;;;;;;0.70;0.10;;;23.60;99.90;;;;;;4898995;29;20456;-68
2023/08/22 04:30:12;;;;;;;0.70;0.10;;;;;;;;;;4899480;29;20536;-69
2023/08/22 04:32:39;;;;;;;0.70;0.20;;;23.50;99.90;;;;;;4898899;29;20463;-69
2023/08/22 04:35:09;;;;;;;0.70;0.20;;;23.50;99.90;;;;;;4898139;29;20513;-69
2023/08/22 04:37:37;;;;;;;0.70;0.10;;;23.50;99.90;;;;;;4898431;29;20517;-68
2023/08/22 04:40:06;;;;;;;0.70;0.20;;;23.40;99.90;;;;;;4899202;29;20477;-70
2023/08/22 04:42:34;;;;;;;0.70;0.20;;;22.70;99.90;;;;;;4898813;29;20473;-70
2023/08/22 04:45:02;;;;;;;0.60;0.10;;;;;;;;;;4898409;29;20857;-70
2023/08/22 04:47:30;;;;;;;0.70;0.10;;;23.40;99.90;;;;;;4898835;29;20456;-70
2023/08/22 04:49:59;;;;;;;0.70;0.10;;;23.40;99.90;;;;;;4898942;29;20869;-70
2023/08/22 04:52:28;;;;;;;0.70;0.10;;;23.40;99.90;;;;;;4899472;29;20465;-69
2023/08/22 04:54:56;;;;;;;0.60;0.10;;;23.40;99.90;;;;;;4898453;29;20544;-70
2023/08/22 04:57:24;;;;;;;0.70;0.13;;;23.40;99.90;;;;;;4898874;29;20492;-70
2023/08/22 04:59:53;;;;;;;0.70;0.10;;;;;;;;;;4898472;29;20898;-70
2023/08/22 05:02:21;;;;;;;0.70;0.10;;;23.40;99.90;;;;;;4898544;29;20549;-70
2023/08/22 05:04:50;;;;;;;0.70;0.20;;;23.50;99.90;;;;;;4898248;29;20462;-69
2023/08/22 05:07:17;;;;;;;0.70;0.10;;;23.50;99.90;;;;;;4898529;29;20871;-70
2023/08/22 05:09:47;;;;;;;0.70;0.20;;;23.50;99.90;;;;;;4897976;29;20457;-69
2023/08/22 05:12:15;;;;;;;0.70;0.10;;;23.50;99.90;;;;;;4898294;29;20497;-69
2023/08/22 05:14:43;;;;;;;0.60;0.10;;;;;;;;;;4898563;29;20890;-69
2023/08/22 05:17:11;;;;;;;0.67;0.20;;;23.60;99.90;;;;;;4898194;29;20489;-70
2023/08/22 05:19:40;;;;;;;0.70;0.10;;;23.40;99.90;;;;;;4898211;29;20453;-69
2023/08/22 05:22:09;;;;;;;0.70;0.20;;;23.50;99.90;;;;;;4897497;29;20572;-69
2023/08/22 05:24:37;;;;;;;0.63;0.20;;;23.50;99.90;;;;;;4898176;29;20480;-70
2023/08/22 05:27:06;;;;;;;0.63;0.10;;;23.60;99.90;;;;;;4897838;29;20541;-71
2023/08/22 05:29:34;;;;;;;0.70;0.10;;;23.50;99.90;;;;;;4897865;29;20485;-69
2023/08/22 05:32:02;;;;;;;0.70;0.10;;;23.60;99.90;;;;;;4897657;29;20512;-69
2023/08/22 05:34:30;;;;;;;0.70;0.20;;;23.70;99.90;;;;;;4895927;29;20470;-70
2023/08/22 05:36:57;;;;;;;0.60;0.20;;;23.70;99.90;;;;;;4890632;29;20603;-70
2023/08/22 05:39:25;;;;;;;0.70;0.17;;;23.60;99.90;;;;;;4897395;29;20460;-70
2023/08/22 05:41:53;;;;;;;0.60;0.13;;;;;;;;;;4897692;29;20875;-71
2023/08/22 05:44:23;;;;;;;0.60;0.10;;;23.70;99.90;;;;;;4897679;29;20537;-71
2023/08/22 05:46:50;;;;;;;0.67;0.20;;;23.70;99.90;;;;;;4897040;29;20517;-68
2023/08/22 05:49:18;;;;;;;0.70;0.10;;;23.70;99.90;;;;;;4896812;29;20532;-69
2023/08/22 05:51:46;;;;;;;0.63;0.20;;;23.70;99.90;;;;;;4896577;29;20484;-69
2023/08/22 05:54:14;;;;;;;0.70;0.20;;;23.80;99.90;;;;;;4897557;29;20536;-70
2023/08/22 05:56:42;;;;;;;0.60;0.10;;;;;;;;;;4901364;29;20584;-69
2023/08/22 05:59:10;;;;;;;0.70;0.10;;;23.90;99.90;;;;;;4901358;29;20484;-69
2023/08/22 06:01:39;;;;;;;0.70;0.20;;;23.90;99.90;;;;;;4902211;29;20485;-71
2023/08/22 06:04:07;;;;;;;0.70;0.20;;;23.80;99.90;;;;;;4898913;29;20536;-70
2023/08/22 06:06:35;;;;;;;0.70;0.20;;;23.80;99.90;;;;;;4898013;29;20449;-69
2023/08/22 06:09:04;;;;;;;0.70;0.20;;;23.90;99.90;;;;;;4897754;29;20821;-67
2023/08/22 06:11:32;;;;;;;0.70;0.10;;;23.90;99.90;;;;;;4897467;29;20512;-68
2023/08/22 06:14:00;;;;;;;0.70;0.17;;;;;;;;;;4891768;29;20550;-71
2023/08/22 06:16:28;;;;;;;0.70;0.20;;;;;;;;;;4883105;29;20491;-72
2023/08/22 06:18:58;;;;;;;0.70;0.10;;;24.20;99.90;;;;;;4897083;29;20461;-71
2023/08/22 06:21:26;;;;;;;0.70;0.20;;;24.30;99.90;;;;;;4897074;29;20485;-69
2023/08/22 06:23:53;;;;;;;1.00;0.50;;;24.20;99.90;;;;;;4889494;29;20456;-67
2023/08/22 06:26:23;;;;;;;0.70;0.10;;;24.10;99.90;;;;;;4896491;29;20442;-68
2023/08/22 06:28:51;;;;;;;1.17;1.07;;;;;;;;;;4896270;29;20584;-69
2023/08/22 06:31:19;;;;;;;0.70;0.10;;;24.20;99.90;;;;;;4896240;29;20974;-69
2023/08/22 06:33:47;;;;;;;0.70;0.40;;;24.20;99.90;;;;;;4896083;29;20556;-70
2023/08/22 06:36:16;;;;;;;0.70;0.10;;;24.30;99.90;;;;;;4896586;29;20532;-70
2023/08/22 06:38:44;;;;;;;0.60;0.10;;;24.30;99.90;;;;;;4896756;29;20504;-69
2023/08/22 06:41:12;;;;;;;1.60;1.10;;;24.30;99.90;;;;;;4896275;29;20480;-68
2023/08/22 06:43:40;;;;;;;0.70;0.20;;;24.30;99.90;;;;;;4889406;29;20505;-68
2023/08/22 06:46:08;;;;;;;0.70;0.10;;;;;;;;;;4877955;29;20546;-67
2023/08/22 06:48:36;;;;;;;0.70;0.10;;;24.20;99.90;;;;;;4894134;29;20465;-67
2023/08/22 06:51:09;;;;;;;0.70;0.10;;;;;;;;;;4895848;29;21057;-72
2023/08/22 06:53:39;;;;;;;0.70;0.10;;;24.30;99.90;;;;;;4893072;29;20569;-70
2023/08/22 06:56:07;;;;;;;0.70;0.10;;;24.40;99.90;;;;;;4891718;29;20503;-75
2023/08/22 06:58:35;;;;;;;0.70;0.10;;;24.40;99.90;;;;;;4895769;29;20478;-68
2023/08/22 07:01:06;;;;;;;0.70;0.20;;;24.40;99.90;;;;;;4895654;29;20571;-69
2023/08/22 07:03:34;;;;;;;0.70;0.10;;;24.50;99.90;;;;;;4896232;29;20446;-69
2023/08/22 07:06:02;;;;;;;0.70;0.20;;;24.50;99.90;;;;;;4895202;29;20857;-69
2023/08/22 07:08:30;;;;;;;0.70;0.20;;;;;;;;;;4896161;29;20445;-71
2023/08/22 07:11:02;;;;;;;0.70;0.10;;;24.50;99.90;;;;;;4895636;29;20557;-70
2023/08/22 07:13:30;;;;;;;0.70;0.10;;;;;;;;;;4895616;29;20764;-72
2023/08/22 07:15:58;;;;;;;0.70;0.20;;;;;;;;;;4895289;29;20461;-71
2023/08/22 07:18:28;;;;;;;0.70;0.20;;;24.60;99.90;;;;;;4895804;29;20489;-69
2023/08/22 07:20:56;;;;;;;0.83;0.33;;;24.60;99.90;;;;;;4895712;29;20477;-69
2023/08/22 07:23:24;;;;;;;0.80;0.40;;;;;;;;;;4895613;29;20489;-71
2023/08/22 07:25:53;;;;;;;0.70;0.20;;;;;;;;;;4895118;29;20457;-72
2023/08/22 07:28:22;;;;;;;0.70;0.10;;;24.70;99.90;;;;;;4895368;29;20442;-70
2023/08/22 07:30:50;;;;;;;0.70;0.10;;;24.60;99.90;;;;;;4895176;29;21028;-69
2023/08/22 07:33:18;;;;;;;0.70;0.20;;;24.70;99.90;;;;;;4894779;29;20454;-69
2023/08/22 07:35:46;;;;;;;0.70;0.10;;;24.70;99.90;;;;;;4894624;29;20484;-72
2023/08/22 07:38:14;;;;;;;0.70;0.10;;;24.70;99.90;;;;;;4894988;29;20552;-70
2023/08/22 07:40:42;;;;;;;0.70;0.10;;;24.80;99.90;;;;;;4895326;29;20564;-69
2023/08/22 07:43:10;;;;;;;0.70;0.10;;;;;;;;;;4891699;29;20534;-69
2023/08/22 07:45:39;;;;;;;0.70;0.20;;;24.90;99.90;;;;;;4891793;29;20481;-69
2023/08/22 07:48:07;;;;;;;0.70;0.40;;;24.90;99.90;;;;;;4895517;29;20536;-70
2023/08/22 07:50:35;;;;;;;0.80;0.30;;;;;;;;;;4895183;29;20465;-71
2023/08/22 07:53:06;;;;;;;0.70;0.20;;;24.90;99.90;;;;;;4897580;29;20950;-70
2023/08/22 07:55:33;;;;;;;0.70;0.10;;;25.00;99.90;;;;;;4899012;29;20528;-70
2023/08/22 07:58:02;;;;;;;0.70;0.20;;;25.00;99.90;;;;;;4897523;29;20489;-70
2023/08/22 08:00:30;;;;;;;0.70;0.20;;;25.00;99.90;;;;;;4898285;29;20533;-70
2023/08/22 08:02:59;;;;;;;0.70;0.10;;;25.00;99.90;;;;;;4896846;29;20513;-68
2023/08/22 08:05:27;;;;;;;0.90;0.43;;;25.00;99.90;;;;;;4897470;29;20887;-69
2023/08/22 08:07:55;;;;;;;0.70;0.10;;;24.90;99.90;;;;;;4897324;29;20441;-68
2023/08/22 08:10:23;;;;;;;0.70;0.20;;;25.00;99.90;;;;;;4899074;29;20445;-68
2023/08/22 08:12:51;;;;;;;0.70;0.10;;;;;;;;;;4898408;29;20485;-68
2023/08/22 08:15:19;;;;;;;0.70;0.20;;;25.20;99.90;;;;;;4898320;29;20635;-68
2023/08/22 08:17:47;;;;;;;0.70;0.10;;;25.30;99.90;;;;;;4898366;29;20493;-68
2023/08/22 08:20:16;;;;;;;0.73;0.17;;;25.30;99.90;;;;;;4898416;29;20453;-68
2023/08/22 08:22:44;;;;;;;0.70;0.10;;;25.40;99.90;;;;;;4898154;29;20485;-69
2023/08/22 08:25:13;;;;;;;0.70;0.10;;;25.40;99.90;;;;;;4898484;29;20980;-69
2023/08/22 08:27:41;;;;;;;0.70;0.33;;;25.50;99.90;;;;;;4898253;29;20533;-69
2023/08/22 08:30:10;;;;;;;0.70;0.10;;;25.50;99.90;;;;;;4897923;29;20636;-69
2023/08/22 08:32:37;;;;;;;0.70;0.10;;;25.60;99.90;;;;;;4897940;29;20461;-72
2023/08/22 08:35:07;;;;;;;0.70;0.20;;;25.60;99.90;;;;;;4890291;29;20462;-69
2023/08/22 08:37:36;;;;;;;0.70;0.10;;;25.70;99.90;;;;;;4897641;29;20531;-70
2023/08/22 08:40:07;;;;;;;0.70;0.20;;;25.80;99.90;;;;;;4897971;29;20501;-69
2023/08/22 08:42:36;;;;;;;0.70;0.20;;;25.80;99.90;;;;;;4897560;29;20473;-71
2023/08/22 08:45:06;;;;;;;0.70;0.10;;;25.80;99.90;;;;;;4896734;29;21120;-67
2023/08/22 08:47:34;;;;;;;0.70;0.10;;;25.80;99.90;;;;;;4879665;29;20452;-68
2023/08/22 08:50:04;;;;;;;0.90;0.60;;;25.80;99.90;;;;;;4879865;29;20446;-68
2023/08/22 08:52:32;;;;;;;0.70;0.10;;;25.90;99.90;;;;;;4893686;29;20484;-67
2023/08/22 08:55:04;;;;;;;0.70;0.20;;;26.00;99.90;;;;;;4898132;29;20474;-67
2023/08/22 08:57:32;;;;;;;0.70;0.20;;;26.00;99.90;;;;;;4899287;29;20461;-68
2023/08/22 09:00:01;;;;;;;0.70;0.10;;;26.10;99.90;;;;;;4898873;29;20535;-67
2023/08/22 09:02:31;;;;;;;0.70;0.10;;;26.00;99.90;;;;;;4897423;29;20523;-71
2023/08/22 09:04:58;;;;;;;0.80;0.43;;;26.10;99.90;;;;;;4897773;29;20458;-69
2023/08/22 09:07:26;;;;;;;0.70;0.20;;;26.10;99.90;;;;;;4897897;29;20449;-68
2023/08/22 09:09:55;;;;;;;0.70;0.30;;;26.20;99.90;;;;;;4897928;29;20455;-67
2023/08/22 09:12:33;;;;;;;0.70;0.10;;;26.20;99.90;;;;;;4899137;29;21260;-67
2023/08/22 09:15:01;;;;;;;0.70;0.10;;;26.20;99.90;;;;;;4900663;29;20576;-68
2023/08/22 09:17:30;;;;;;;0.70;0.20;;;26.30;99.90;;;;;;4902958;29;20492;-69
2023/08/22 09:19:58;;;;;;;0.70;0.37;;;26.30;99.90;;;;;;4900095;29;20488;-69
2023/08/22 09:22:29;;;;;;;1.07;1.00;;;26.30;99.90;;;;;;4893672;29;20577;-70
2023/08/22 09:24:57;;;;;;;0.80;0.50;;;26.20;99.90;;;;;;4895617;29;20458;-68
2023/08/22 09:27:27;;;;;;;0.70;0.20;;;26.20;99.90;;;;;;4898333;29;20540;-67
2023/08/22 09:30:04;;;;;;;0.70;0.10;;;26.20;99.90;;;;;;4898068;29;20449;-67
2023/08/22 09:32:32;;;;;;;0.70;0.10;;;26.30;99.90;;;;;;4898088;29;20583;-68
2023/08/22 09:35:02;;;;;;;0.70;0.20;;;26.30;99.90;;;;;;4890253;29;20459;-68
2023/08/22 09:37:31;;;;;;;0.70;0.10;;;26.50;99.90;;;;;;4894902;29;20458;-69
2023/08/22 09:39:59;;;;;;;0.70;0.20;;;26.50;99.90;;;;;;4897438;29;20502;-68
2023/08/22 09:42:30;;;;;;;0.70;0.27;;;26.50;99.90;;;;;;4889193;29;20466;-71
2023/08/22 09:44:58;;;;;;;0.70;0.20;;;26.50;99.90;;;;;;4896540;29;20539;-68
2023/08/22 09:47:29;;;;;;;0.97;0.67;;;26.40;99.90;;;;;;4888573;29;20491;-70
2023/08/22 09:50:01;;;;;;;1.30;0.43;;;26.40;99.90;;;;;;4889774;29;20449;-69
2023/08/22 09:52:29;;;;;;;0.80;0.70;;;26.50;99.90;;;;;;4894019;29;20477;-71
2023/08/22 09:54:58;;;;;;;0.73;0.20;;;26.50;99.90;;;;;;4895946;29;20911;-70
2023/08/22 09:57:27;;;;;;;0.70;0.20;;;26.60;99.90;;;;;;4896456;29;20454;-67
2023/08/22 10:00:00;;;;;;;0.70;0.10;;;26.80;99.90;;;;;;4892940;29;21008;-68
2023/08/22 10:02:31;;;;;;;0.70;0.10;;;26.70;99.90;;;;;;4893118;29;20506;-69
2023/08/22 10:05:00;;;;;;;0.70;0.10;;;26.90;99.90;;;;;;4895922;29;20493;-68
2023/08/22 10:07:28;;;;;;;2.30;0.67;;;27.00;99.90;;;;;;4896008;29;20558;-68
2023/08/22 10:09:57;;;;;;;0.70;0.20;;;27.10;99.90;;;;;;4892807;29;20509;-69
2023/08/22 10:12:28;;;;;;;0.70;0.20;;;27.10;99.90;;;;;;4892530;29;20491;-71
2023/08/22 10:14:59;;;;;;;0.80;0.20;;;27.10;99.90;;;;;;4895514;29;20865;-69
2023/08/22 10:17:28;;;;;;;0.70;0.10;;;27.20;99.90;;;;;;4897106;29;20970;-71
2023/08/22 10:20:04;;;;;;;0.70;0.20;;;27.20;99.90;;;;;;4896331;29;20830;-68
2023/08/22 10:22:33;;;;;;;0.70;0.10;;;27.40;99.70;;;;;;4888380;29;20980;-69
2023/08/22 10:25:05;;;;;;;0.70;0.20;;;27.50;98.70;;;;;;4883750;29;20522;-68
2023/08/22 10:27:33;;;;;;;0.70;0.20;;;27.50;97.00;;;;;;4877892;29;21005;-68
2023/08/22 10:30:23;;;;;;;0.80;0.37;;;27.60;98.40;;;;;;4877624;29;20826;-68
2023/08/22 10:33:04;;;;;;;0.70;0.20;;;27.70;97.70;;;;;;4877493;29;20971;-68
2023/08/22 10:36:02;;;;;;;0.90;0.40;;;27.80;96.90;;;;;;4887436;29;20516;-68
2023/08/22 10:38:48;;;;;;;0.70;0.20;;;27.90;95.10;;;;;;4896415;29;20561;-71
2023/08/22 10:41:15;;;;;;;0.70;0.20;;;27.80;93.60;;;;;;4895831;29;20480;-72
2023/08/22 10:43:43;;;;;;;0.70;0.10;;;27.80;94.10;;;;;;4896126;29;20497;-67
2023/08/22 10:46:13;;;;;;;0.70;0.20;;;27.70;93.70;;;;;;4890148;29;20452;-68
2023/08/22 10:48:41;;;;;;;0.70;0.20;;;27.60;93.30;;;;;;4885020;29;20456;-69
2023/08/22 10:51:09;;;;;;;0.70;0.20;;;27.60;92.40;;;;;;4880244;29;20469;-71
2023/08/22 10:53:45;;;;;;;0.70;0.10;;;27.60;96.90;;;;;;4896729;29;20954;-69
2023/08/22 10:56:22;;;;;;;0.70;0.20;;;27.60;96.00;;;;;;4895980;29;20487;-68
2023/08/22 10:59:01;;;;;;;0.70;0.20;;;27.70;90.60;;;;;;4892964;29;20493;-69
2023/08/22 11:01:30;;;;;;;0.70;0.13;;;27.70;90.40;;;;;;4892911;29;21056;-69
2023/08/22 11:03:59;;;;;;;0.70;0.20;;;27.70;92.00;;;;;;4895900;29;20962;-68
2023/08/22 11:06:27;;;;;;;0.70;0.20;;;27.70;97.10;;;;;;4895469;29;20464;-70
2023/08/22 11:08:55;;;;;;;0.80;0.40;;;;;;;;;;4896687;29;20448;-70
2023/08/22 11:11:24;;;;;;;0.70;0.10;;;;;;;;;;4896807;29;20511;-71
2023/08/22 11:13:52;;;;;;;1.00;0.90;;;27.70;94.50;;;;;;4896049;29;20543;-69
2023/08/22 11:16:20;;;;;;;0.70;0.10;;;27.80;98.90;;;;;;4895764;29;20547;-69
2023/08/22 11:18:50;;;;;;;0.70;0.10;;;27.80;97.80;;;;;;4895766;29;20479;-69
2023/08/22 11:21:18;;;;;;;0.80;0.50;;;27.70;90.90;;;;;;4895628;29;20510;-69
2023/08/22 11:23:46;;;;;;;0.70;0.10;;;27.70;91.60;;;;;;4887600;29;20446;-69
2023/08/22 11:26:14;;;;;;;0.87;0.77;;;27.70;97.80;;;;;;4897088;29;20454;-69
2023/08/22 11:28:42;;;;;;;0.70;0.20;;;27.80;98.70;;;;;;4900715;29;20477;-70
2023/08/22 11:31:16;;;;;;;0.70;0.10;;;27.80;92.20;;;;;;4900515;29;20469;-70
2023/08/22 11:33:49;;;;;;;0.70;0.20;;;27.70;92.40;;;;;;4900360;29;20944;-69
2023/08/22 11:36:20;;;;;;;2.30;2.00;;;27.70;92.70;;;;;;4889499;29;20493;-69
2023/08/22 11:38:53;;;;;;;0.70;0.10;;;27.80;91.90;;;;;;4899942;29;20549;-69
2023/08/22 11:41:21;;;;;;;0.70;0.10;;;27.80;91.00;;;;;;4900522;29;20527;-69
2023/08/22 11:43:55;;;;;;;0.70;0.10;;;27.70;89.70;;;;;;4900131;29;20478;-70
2023/08/22 11:46:23;;;;;;;3.70;1.03;;;27.60;87.10;;;;;;4899739;29;20463;-70
2023/08/22 11:48:52;;;;;;;0.70;0.10;;;27.60;93.90;;;;;;4899566;29;20459;-69
2023/08/22 11:51:24;;;;;;;0.70;0.20;;;27.80;90.60;;;;;;4899518;29;20529;-70
2023/08/22 11:53:52;;;;;;;0.70;0.10;;;27.90;90.30;;;;;;4900251;29;20555;-69
2023/08/22 11:56:20;;;;;;;0.70;0.10;;;28.00;89.70;;;;;;4893774;29;20451;-69
2023/08/22 11:58:52;;;;;;;0.70;0.10;;;28.00;89.50;;;;;;4894240;29;20491;-70
2023/08/22 12:01:24;;;;;;;0.70;0.10;;;28.10;89.10;;;;;;4902825;29;20484;-70
2023/08/22 12:03:57;;;;;;;0.70;0.20;;;28.20;89.30;;;;;;4902509;29;20467;-69
2023/08/22 12:06:26;;;;;;;0.70;0.20;;;28.20;94.60;;;;;;4901188;29;20453;-70
2023/08/22 12:08:55;;;;;;;0.70;0.20;;;28.40;84.20;;;;;;4899599;29;20464;-70
2023/08/22 12:11:25;;;;;;;0.70;0.10;;;28.50;82.40;;;;;;4898801;29;20560;-70
2023/08/22 12:13:53;;;;;;;0.70;0.10;;;28.50;77.30;;;;;;4906983;29;20458;-69
2023/08/22 12:16:21;;;;;;;1.10;0.60;;;28.60;76.60;;;;;;4907748;29;20487;-69
2023/08/22 12:18:49;;;;;;;4.80;1.60;;;28.60;88.10;;;;;;4899930;29;20456;-69
2023/08/22 12:21:17;;;;;;;0.90;0.50;;;28.70;76.40;;;;;;4899518;29;20489;-68
2023/08/22 12:23:46;;;;;;;0.70;0.17;;;28.80;74.00;;;;;;4899161;29;20889;-68
2023/08/22 12:26:14;;;;;;;0.70;0.10;;;28.80;85.40;;;;;;4899297;29;20459;-69
2023/08/22 12:28:42;;;;;;;0.70;0.20;;;29.00;74.00;;;;;;4899287;29;20488;-69
2023/08/22 12:31:10;;;;;;;0.70;0.10;;;29.10;71.60;;;;;;4901172;29;20465;-70
2023/08/22 12:33:38;;;;;;;0.70;0.20;;;29.20;64.60;;;;;;4901142;29;20977;-70
2023/08/22 12:36:06;;;;;;;0.70;0.10;;;29.20;76.30;;;;;;4895008;29;20544;-70
2023/08/22 12:38:34;;;;;;;0.70;0.20;;;29.30;61.40;;;;;;4898887;29;20672;-69
2023/08/22 12:41:07;;;;;;;0.70;0.20;;;29.40;61.50;;;;;;4899502;29;20854;-68
2023/08/22 12:43:35;;;;;;;0.70;0.10;;;29.40;72.60;;;;;;4899150;29;20460;-69
2023/08/22 12:46:03;;;;;;;0.70;0.17;;;29.40;55.40;;;;;;4880741;29;20488;-70
2023/08/22 12:48:32;;;;;;;0.70;0.20;;;29.50;62.90;;;;;;4880319;29;20453;-69
2023/08/22 12:51:01;;;;;;;0.70;0.10;;;29.40;50.60;;;;;;4880244;29;20541;-70
2023/08/22 12:53:29;;;;;;;0.70;0.10;;;29.50;62.70;;;;;;4892067;29;20504;-71
2023/08/22 12:55:57;;;;;;;2.03;0.77;;;29.50;63.20;;;;;;4898688;29;20827;-69
2023/08/22 12:58:28;;;;;;;0.70;0.13;;;29.50;59.10;;;;;;4898715;29;20453;-69
2023/08/22 13:00:56;;;;;;;0.70;0.20;;;;;;;;;;4898498;29;20492;-69
2023/08/22 13:03:24;;;;;;;0.70;0.10;;;29.30;48.80;;;;;;4899423;29;20534;-70
2023/08/22 13:05:52;;;;;;;0.70;0.13;;;29.30;59.90;;;;;;4898304;29;20449;-67
2023/08/22 13:08:20;;;;;;;1.67;0.97;;;29.30;49.50;;;;;;4898241;29;20484;-69
2023/08/22 13:10:48;;;;;;;0.70;0.20;;;29.20;49.50;;;;;;4890091;29;20469;-69
2023/08/22 13:13:16;;;;;;;0.70;0.20;;;29.30;52.00;;;;;;4898126;29;20506;-69
2023/08/22 13:15:45;;;;;;;0.70;0.10;;;29.40;47.80;;;;;;4898118;29;21002;-70
2023/08/22 13:18:13;;;;;;;0.70;0.20;;;29.40;58.20;;;;;;4897638;29;20462;-69
2023/08/22 13:20:41;;;;;;;0.70;0.20;;;29.60;47.80;;;;;;4897921;29;21014;-69
2023/08/22 13:23:09;;;;;;;1.53;1.33;;;29.60;58.60;;;;;;4897805;29;20970;-69
2023/08/22 13:25:37;;;;;;;0.80;0.40;;;29.60;40.40;;;;;;4898251;29;20579;-69
2023/08/22 13:28:05;;;;;;;0.70;0.20;;;29.70;40.30;;;;;;4897268;29;20461;-69
2023/08/22 13:30:33;;;;;;;0.70;0.10;;;29.90;40.50;;;;;;4897586;29;20513;-69
2023/08/22 13:33:03;;;;;;;0.70;0.10;;;30.10;41.30;;;;;;4897836;29;20525;-70
2023/08/22 13:35:31;;;;;;;0.70;0.20;;;;;;;;;;4897915;29;20445;-69
2023/08/22 13:37:59;;;;;;;0.70;0.20;;;30.30;27.00;;;;;;4897657;29;20492;-70
2023/08/22 13:40:27;;;;;;;0.80;0.20;;;30.40;26.20;;;;;;4897374;29;20495;-70
2023/08/22 13:42:54;;;;;;;0.87;0.30;;;30.40;34.50;;;;;;4896335;29;20457;-69
2023/08/22 13:45:22;;;;;;;0.70;0.20;;;30.40;13.60;;;;;;4878510;29;20463;-69
2023/08/22 13:47:54;;;;;;;0.70;0.10;;;30.30;21.30;;;;;;4887957;29;20536;-70
2023/08/22 13:50:23;;;;;;;2.13;1.93;;;30.40;7.40;;;;;;4882003;29;20469;-70
2023/08/22 13:52:51;;;;;;;0.90;0.70;;;30.10;5.20;;;;;;4894991;29;20446;-68
2023/08/22 13:55:19;;;;;;;0.70;0.20;;;30.00;6.00;;;;;;4896880;29;20543;-69
2023/08/22 13:57:47;;;;;;;0.70;0.17;;;30.00;9.50;;;;;;4897341;29;20453;-69
2023/08/22 14:00:16;;;;;;;0.70;0.17;;;30.10;9.10;;;;;;4896907;29;20449;-70
2023/08/22 14:02:44;;;;;;;1.00;0.60;;;30.20;6.40;;;;;;4897279;29;20477;-68
2023/08/22 14:05:12;;;;;;;0.70;0.33;;;30.30;6.60;;;;;;4896431;29;20971;-69
2023/08/22 14:07:42;;;;;;;0.70;0.20;;;30.40;6.30;;;;;;4896217;29;20465;-69
2023/08/22 14:10:10;;;;;;;0.80;0.47;;;30.40;6.20;;;;;;4908855;29;20848;-69
2023/08/22 14:12:38;;;;;;;0.80;0.50;;;30.50;2.10;;;;;;4915917;29;20525;-69
2023/08/22 14:15:07;;;;;;;0.70;0.10;;;30.40;1.00;;;;;;4915648;29;20483;-69
2023/08/22 14:17:35;;;;;;;0.70;0.20;;;30.50;8.80;;;;;;4913657;29;20549;-71
2023/08/22 14:20:04;;;;;;;0.70;0.10;;;30.50;7.10;;;;;;4897927;29;20464;-68
2023/08/22 14:22:32;;;;;;;0.70;0.30;;;30.60;1.40;;;;;;4896100;29;20672;-70
2023/08/22 14:25:01;;;;;;;0.70;0.40;;;30.60;8.80;;;;;;4890018;29;20537;-70
2023/08/22 14:27:29;;;;;;;0.73;0.40;;;30.70;10.00;;;;;;4896262;29;20461;-68
2023/08/22 14:29:57;;;;;;;0.70;0.17;;;30.80;9.30;;;;;;4896613;29;20496;-71
2023/08/22 14:32:25;;;;;;;0.70;0.10;;;30.90;3.80;;;;;;4896718;29;20461;-70
2023/08/22 14:34:53;;;;;;;0.70;0.20;;;31.20;2.40;;;;;;4896548;29;20453;-69
2023/08/22 14:37:21;;;;;;;0.80;0.30;;;31.20;11.00;;;;;;4896490;29;20449;-70
2023/08/22 14:39:51;;;;;;;0.70;0.20;;;31.40;7.90;;;;;;4896431;29;20460;-69
2023/08/22 14:42:20;;;;;;;0.70;0.10;;;31.40;1.80;;;;;;4896527;29;20488;-69
2023/08/22 14:44:48;;;;;;;0.70;0.20;;;31.30;10.70;;;;;;4880007;29;20502;-68
2023/08/22 14:47:17;;;;;;;1.10;0.77;;;;;;;;;;4882664;29;20481;-69
2023/08/22 14:49:45;;;;;;;0.70;0.13;;;31.40;1.00;;;;;;4905549;29;20440;-68
2023/08/22 14:52:13;;;;;;;1.00;0.83;;;31.40;1.00;;;;;;4915605;29;20540;-69
2023/08/22 14:54:40;;;;;;;0.70;0.30;;;31.40;7.90;;;;;;4899863;29;20453;-70
2023/08/22 14:57:08;;;;;;;0.70;0.10;;;31.30;9.50;;;;;;4896827;29;20541;-69
2023/08/22 14:59:37;;;;;;;0.70;0.20;;;31.20;12.60;;;;;;4890918;29;20485;-70
2023/08/22 15:02:06;;;;;;;1.37;0.90;;;30.60;4.70;;;;;;4892139;29;20569;-69
2023/08/22 15:04:34;;;;;;;0.70;0.20;;;30.60;13.30;;;;;;4896252;29;20473;-71
2023/08/22 15:07:02;;;;;;;0.70;0.10;;;30.30;14.30;;;;;;4895834;29;20969;-71
2023/08/22 15:09:30;;;;;;;0.70;0.20;;;30.20;14.40;;;;;;4896097;29;20971;-70
2023/08/22 15:11:58;;;;;;;0.70;0.20;;;30.10;6.00;;;;;;4896138;29;20511;-69
2023/08/22 15:14:26;;;;;;;0.90;0.47;;;30.00;2.70;;;;;;4895796;29;20454;-69
2023/08/22 15:16:55;;;;;;;0.70;0.20;;;29.90;4.90;;;;;;4896371;29;20485;-71
2023/08/22 15:19:23;;;;;;;0.70;0.10;;;29.80;12.60;;;;;;4896172;29;20457;-69
2023/08/22 15:21:51;;;;;;;0.70;0.20;;;29.70;5.80;;;;;;4895718;29;20510;-70
2023/08/22 15:24:18;;;;;;;0.70;0.20;;;29.70;3.20;;;;;;4896059;29;20525;-69
2023/08/22 15:26:46;;;;;;;0.77;0.33;;;29.70;5.70;;;;;;4895716;29;20459;-69
2023/08/22 15:29:15;;;;;;;0.70;0.20;;;;;;;;;;4896365;29;20484;-69
2023/08/22 15:31:43;;;;;;;2.83;1.43;;;29.70;5.70;;;;;;4896065;29;20469;-69
2023/08/22 15:34:13;;;;;;;0.70;0.20;;;29.60;5.70;;;;;;4895171;29;20544;-71
2023/08/22 15:36:42;;;;;;;0.70;0.20;;;29.60;13.40;;;;;;4896024;29;20477;-72
2023/08/22 15:39:10;;;;;;;0.70;0.20;;;29.60;11.50;;;;;;4896307;29;20453;-69
2023/08/22 15:41:37;;;;;;;0.80;0.40;;;29.50;5.30;;;;;;4895790;29;20521;-70
2023/08/22 15:44:05;;;;;;;0.70;0.40;;;29.50;5.60;;;;;;4884837;29;20454;-71
2023/08/22 15:46:33;;;;;;;1.60;1.50;;;29.60;5.70;;;;;;4877441;29;20522;-69
2023/08/22 15:49:01;;;;;;;0.70;0.20;;;29.60;14.40;;;;;;4877505;29;20457;-68
2023/08/22 15:51:31;;;;;;;0.70;0.10;;;29.90;6.20;;;;;;4887635;29;20501;-70
2023/08/22 15:53:58;;;;;;;0.80;0.30;;;29.90;14.50;;;;;;4894001;29;21006;-69
2023/08/22 15:56:26;;;;;;;0.70;0.20;;;30.10;14.50;;;;;;4897860;29;20495;-70
2023/08/22 15:58:56;;;;;;;0.80;0.50;;;30.30;16.20;;;;;;4896906;29;20453;-73
2023/08/22 16:01:24;;;;;;;0.70;0.20;;;30.50;6.20;;;;;;4896066;29;20481;-70
2023/08/22 16:03:52;;;;;;;0.70;0.20;;;30.60;4.90;;;;;;4895960;29;20450;-68
2023/08/22 16:06:19;;;;;;;0.70;0.20;;;30.60;6.30;;;;;;4895775;29;20505;-71
2023/08/22 16:08:49;;;;;;;0.70;0.10;;;30.70;2.30;;;;;;4896416;29;20537;-69
2023/08/22 16:11:17;;;;;;;0.70;0.10;;;;;;;;;;4896697;29;20541;-71
2023/08/22 16:13:45;;;;;;;0.70;0.10;;;30.80;1.40;;;;;;4897895;29;20937;-70
2023/08/22 16:19:00;;;;;;;0.70;0.20;;;31.10;1.00;;;;;;4895959;29;20449;-68
2023/08/22 16:21:27;;;;;;;0.70;0.40;;;31.10;1.00;;;;;;4897992;29;20453;-68
2023/08/22 16:23:56;;;;;;;0.70;0.20;;;31.00;1.00;;;;;;4898934;29;20981;-68
2023/08/22 16:26:26;;;;;;;2.30;0.73;;;30.90;1.00;;;;;;4892298;29;21042;-69
2023/08/22 16:28:54;;;;;;;0.70;0.20;;;30.60;1.00;;;;;;4879741;29;20482;-67
2023/08/22 16:31:23;;;;;;;0.70;0.20;;;30.40;1.00;;;;;;4879449;29;20458;-67
2023/08/22 16:33:51;;;;;;;0.70;0.20;;;30.30;1.90;;;;;;4879920;29;20458;-67
2023/08/22 16:36:19;;;;;;;0.70;0.10;;;30.20;2.80;;;;;;4879701;29;20557;-67
2023/08/22 16:38:47;;;;;;;0.70;0.10;;;30.20;1.90;;;;;;4879921;29;20458;-67
2023/08/22 16:41:16;;;;;;;0.70;0.20;;;30.20;1.90;;;;;;4880150;29;20482;-67
2023/08/22 16:43:44;;;;;;;0.73;0.20;;;30.30;2.90;;;;;;4879017;29;20580;-67
2023/08/22 16:46:12;;;;;;;0.70;0.20;;;30.40;3.50;;;;;;4879704;29;20566;-67
2023/08/22 16:48:40;;;;;;;0.70;0.30;;;30.40;1.80;;;;;;4879788;29;20450;-67
2023/08/22 16:51:08;;;;;;;0.70;0.20;;;30.30;1.00;;;;;;4880367;29;20518;-67
2023/08/22 16:53:36;;;;;;;0.70;0.20;;;30.10;2.60;;;;;;4878563;29;20534;-67
2023/08/22 16:56:07;;;;;;;0.70;0.20;;;30.10;2.30;;;;;;4879259;29;20539;-67
2023/08/22 16:58:39;;;;;;;0.70;0.10;;;29.90;1.30;;;;;;4879827;29;20589;-67
2023/08/22 17:01:07;;;;;;;0.77;0.27;;;29.80;3.30;;;;;;4879383;29;21148;-68
2023/08/22 17:03:35;;;;;;;0.70;0.10;;;29.60;4.40;;;;;;4879619;29;20983;-68
2023/08/22 17:06:04;;;;;;;0.70;0.20;;;29.50;4.90;;;;;;4880006;29;20556;-71
2023/08/22 17:08:32;;;;;;;0.70;0.10;;;29.40;4.10;;;;;;4879486;29;20455;-67